Time;durP1;ratioP1;P1;durP2;ratioP2;P2;SDS_P1;SDS_P2;PMS_P1;PMS_P2;Temp;Humidity;BMP_temperature;BMP_pressure;BME280_temperature;BME280_humidity;BME280_pressure;Samples;Min_cycle;Max_cycle;Signal;HPM_P1;HPM_P2
2021/01/08 00:01:58;;;;;;;7.93;7.20;;;6.00;64.90;;;;;;4897226;29;21017;-78
2021/01/08 00:04:25;;;;;;;10.40;9.30;;;6.00;64.80;;;;;;4897325;29;20456;-76
2021/01/08 00:06:55;;;;;;;7.33;6.63;;;6.00;64.80;;;;;;4890876;29;20460;-75
2021/01/08 00:09:22;;;;;;;7.83;6.40;;;5.90;65.10;;;;;;4896469;29;20488;-76
2021/01/08 00:11:54;;;;;;;8.63;6.90;;;5.90;65.40;;;;;;4896238;29;20495;-76
2021/01/08 00:14:21;;;;;;;9.90;7.33;;;5.90;65.80;;;;;;4896913;29;20543;-76
2021/01/08 00:16:47;;;;;;;7.70;6.63;;;5.90;65.90;;;;;;4896132;29;20456;-77
2021/01/08 00:19:14;;;;;;;10.53;6.63;;;5.80;66.00;;;;;;4896316;29;20460;-76
2021/01/08 00:21:43;;;;;;;8.63;7.60;;;5.90;66.20;;;;;;4895208;29;20464;-76
2021/01/08 00:24:10;;;;;;;7.87;7.00;;;5.90;66.10;;;;;;4897132;29;20987;-76
2021/01/08 00:26:37;;;;;;;9.13;8.10;;;6.00;65.90;;;;;;4896844;29;20464;-76
2021/01/08 00:29:04;;;;;;;7.67;6.90;;;6.00;65.90;;;;;;4896675;29;20457;-77
2021/01/08 00:31:37;;;;;;;9.00;7.13;;;6.10;66.10;;;;;;4896959;29;20493;-76
2021/01/08 00:34:05;;;;;;;9.90;7.80;;;6.10;66.30;;;;;;4896967;29;20466;-77
2021/01/08 00:36:32;;;;;;;9.57;7.27;;;6.10;66.40;;;;;;4896932;29;20456;-76
2021/01/08 00:39:00;;;;;;;9.43;7.90;;;6.10;66.40;;;;;;4896750;29;20467;-77
2021/01/08 00:41:31;;;;;;;8.47;6.97;;;6.20;65.90;;;;;;4896771;29;20463;-76
2021/01/08 00:43:58;;;;;;;8.40;7.23;;;6.20;65.40;;;;;;4896130;29;20506;-76
2021/01/08 00:46:32;;;;;;;8.50;6.67;;;6.20;65.20;;;;;;4897006;29;20547;-76
2021/01/08 00:48:58;;;;;;;9.10;7.10;;;6.20;65.20;;;;;;4895012;29;20466;-77
2021/01/08 00:51:25;;;;;;;9.67;7.27;;;6.20;65.10;;;;;;4896360;29;20607;-77
2021/01/08 00:53:52;;;;;;;9.50;7.50;;;6.20;65.20;;;;;;4896922;29;20476;-77
2021/01/08 00:56:20;;;;;;;7.90;6.50;;;6.20;65.50;;;;;;4896780;29;20461;-77
2021/01/08 00:58:47;;;;;;;8.60;5.97;;;6.20;65.70;;;;;;4896508;29;20463;-77
2021/01/08 01:01:14;;;;;;;9.30;6.93;;;6.10;65.10;;;;;;4887250;29;20491;-78
2021/01/08 01:03:41;;;;;;;9.77;6.77;;;6.10;65.20;;;;;;4896837;29;20455;-77
2021/01/08 01:06:07;;;;;;;7.77;6.97;;;6.10;64.80;;;;;;4896849;29;20467;-76
2021/01/08 01:08:34;;;;;;;8.80;7.10;;;6.10;64.90;;;;;;4896874;29;20543;-77
2021/01/08 01:11:01;;;;;;;7.43;5.87;;;6.10;64.90;;;;;;4896370;29;20590;-77
2021/01/08 01:13:29;;;;;;;8.13;6.43;;;6.20;64.90;;;;;;4895371;29;20467;-77
2021/01/08 01:15:55;;;;;;;7.83;6.90;;;6.20;64.60;;;;;;4894832;29;20470;-77
2021/01/08 01:18:22;;;;;;;7.20;6.17;;;6.20;64.50;;;;;;4897089;29;20957;-77
2021/01/08 01:20:49;;;;;;;6.70;5.77;;;6.20;64.70;;;;;;4896106;29;20463;-77
2021/01/08 01:23:16;;;;;;;9.77;6.97;;;6.20;64.40;;;;;;4896478;29;20948;-77
2021/01/08 01:25:42;;;;;;;7.13;5.13;;;6.20;64.40;;;;;;4896663;29;20463;-77
2021/01/08 01:28:09;;;;;;;6.63;5.50;;;6.20;64.40;;;;;;4896612;29;20468;-76
2021/01/08 01:30:37;;;;;;;7.00;5.57;;;6.20;64.40;;;;;;4898221;29;20951;-76
2021/01/08 01:33:03;;;;;;;7.37;5.53;;;6.20;64.20;;;;;;4899899;29;20460;-77
2021/01/08 01:35:31;;;;;;;6.87;5.87;;;6.20;64.10;;;;;;4899479;29;20461;-78
2021/01/08 01:37:58;;;;;;;6.50;5.73;;;6.10;63.90;;;;;;4888104;29;20551;-77
2021/01/08 01:40:25;;;;;;;6.93;5.80;;;6.00;63.90;;;;;;4900133;29;20466;-77
2021/01/08 01:42:51;;;;;;;9.13;5.47;;;6.00;63.90;;;;;;4898407;29;20462;-77
2021/01/08 01:45:18;;;;;;;6.67;5.40;;;5.90;63.90;;;;;;4899217;29;20483;-76
2021/01/08 01:47:45;;;;;;;8.73;5.83;;;5.80;63.80;;;;;;4899203;29;20843;-78
2021/01/08 01:50:12;;;;;;;6.20;5.07;;;5.70;63.80;;;;;;4899098;29;20475;-77
2021/01/08 01:52:39;;;;;;;5.43;4.93;;;5.60;64.00;;;;;;4899974;29;20681;-76
2021/01/08 01:55:07;;;;;;;6.83;6.10;;;5.60;64.20;;;;;;4899310;29;20540;-76
2021/01/08 01:57:34;;;;;;;6.80;6.10;;;5.50;64.10;;;;;;4899389;29;20588;-76
2021/01/08 02:00:01;;;;;;;6.40;5.80;;;5.50;64.40;;;;;;4899035;29;20472;-77
2021/01/08 02:02:33;;;;;;;5.67;4.90;;;5.40;64.50;;;;;;4899492;29;20514;-77
2021/01/08 02:05:05;;;;;;;6.27;5.43;;;5.40;64.60;;;;;;4899402;29;20464;-77
2021/01/08 02:07:37;;;;;;;6.00;5.10;;;5.40;64.80;;;;;;4889970;29;20451;-77
2021/01/08 02:10:07;;;;;;;10.60;5.40;;;5.40;65.10;;;;;;4899186;29;20455;-77
2021/01/08 02:12:36;;;;;;;8.67;6.20;;;5.40;65.40;;;;;;4899397;29;20498;-78
2021/01/08 02:15:05;;;;;;;7.47;6.70;;;5.40;65.50;;;;;;4898781;29;20464;-78
2021/01/08 02:17:33;;;;;;;7.97;5.77;;;5.40;65.60;;;;;;4895569;29;20551;-77
2021/01/08 02:20:04;;;;;;;9.53;6.23;;;5.50;65.60;;;;;;4898627;29;20475;-77
2021/01/08 02:22:36;;;;;;;7.10;6.33;;;5.50;65.70;;;;;;4899280;29;20469;-77
2021/01/08 02:25:13;;;;;;;7.00;6.23;;;5.50;65.90;;;;;;4899616;29;20943;-77
2021/01/08 02:27:43;;;;;;;7.60;6.20;;;5.50;65.90;;;;;;4898461;29;20519;-76
2021/01/08 02:30:11;;;;;;;7.63;5.93;;;5.50;66.10;;;;;;4898836;29;20466;-76
2021/01/08 02:32:38;;;;;;;6.50;5.30;;;5.50;66.00;;;;;;4890147;29;20501;-76
2021/01/08 02:35:06;;;;;;;8.47;6.10;;;5.50;66.10;;;;;;4896527;29;20505;-76
2021/01/08 02:37:41;;;;;;;6.50;5.60;;;5.50;65.90;;;;;;4898402;29;20460;-77
2021/01/08 02:40:11;;;;;;;7.30;4.50;;;5.60;65.80;;;;;;4880506;29;20583;-77
2021/01/08 02:42:38;;;;;;;6.90;5.47;;;5.60;65.70;;;;;;4896428;29;20459;-77
2021/01/08 02:45:06;;;;;;;6.50;5.00;;;5.60;65.50;;;;;;4899018;29;20465;-77
2021/01/08 02:47:32;;;;;;;4.97;4.33;;;5.60;65.40;;;;;;4898117;29;20486;-77
2021/01/08 02:49:59;;;;;;;6.10;4.33;;;5.60;65.90;;;;;;4898184;29;20466;-77
2021/01/08 02:52:27;;;;;;;6.60;5.70;;;5.70;65.00;;;;;;4898371;29;20996;-77
2021/01/08 02:54:55;;;;;;;6.43;5.00;;;5.70;65.00;;;;;;4899106;29;20549;-77
2021/01/08 02:57:23;;;;;;;5.97;5.37;;;5.70;65.00;;;;;;4898267;29;20855;-77
2021/01/08 02:59:50;;;;;;;7.00;5.40;;;5.70;64.90;;;;;;4897308;29;20958;-77
2021/01/08 03:02:17;;;;;;;5.70;4.70;;;5.80;64.90;;;;;;4896501;29;20485;-76
2021/01/08 03:04:43;;;;;;;8.43;5.30;;;5.80;65.50;;;;;;4898062;29;21023;-77
2021/01/08 03:07:10;;;;;;;6.73;5.03;;;5.90;64.50;;;;;;4898872;29;20451;-76
2021/01/08 03:09:37;;;;;;;7.50;6.07;;;5.90;64.00;;;;;;4898135;29;20944;-76
2021/01/08 03:12:04;;;;;;;6.23;5.43;;;6.00;63.50;;;;;;4897842;29;20501;-76
2021/01/08 03:14:31;;;;;;;7.03;5.17;;;6.00;63.30;;;;;;4897882;29;20490;-76
2021/01/08 03:16:58;;;;;;;7.50;5.80;;;6.00;63.40;;;;;;4898140;29;20617;-77
2021/01/08 03:19:25;;;;;;;8.67;6.53;;;6.00;63.50;;;;;;4897282;29;20975;-77
2021/01/08 03:21:52;;;;;;;7.00;6.37;;;6.00;63.80;;;;;;4897329;29;20463;-77
2021/01/08 03:24:18;;;;;;;7.73;5.97;;;6.00;63.80;;;;;;4897726;29;20526;-77
2021/01/08 03:26:45;;;;;;;6.83;5.40;;;6.00;64.10;;;;;;4898362;29;20444;-77
2021/01/08 03:29:11;;;;;;;6.23;5.43;;;5.90;64.10;;;;;;4896324;29;20975;-77
2021/01/08 03:31:39;;;;;;;6.90;6.20;;;5.90;64.30;;;;;;4897561;29;20580;-77
2021/01/08 03:34:05;;;;;;;6.90;6.27;;;5.90;64.30;;;;;;4897501;29;20995;-77
2021/01/08 03:36:32;;;;;;;5.87;5.27;;;5.80;64.30;;;;;;4896866;29;20455;-77
2021/01/08 03:38:58;;;;;;;5.90;5.30;;;5.90;64.30;;;;;;4897878;29;20953;-77
2021/01/08 03:41:25;;;;;;;6.13;5.40;;;5.90;64.30;;;;;;4897584;29;20511;-76
2021/01/08 03:43:52;;;;;;;6.20;5.60;;;5.80;64.10;;;;;;4897173;29;21035;-77
2021/01/08 03:46:19;;;;;;;8.20;5.60;;;5.80;64.20;;;;;;4897158;29;20471;-76
2021/01/08 03:48:46;;;;;;;7.40;5.67;;;5.80;64.30;;;;;;4897710;29;20467;-76
2021/01/08 03:51:13;;;;;;;9.47;7.70;;;5.80;64.40;;;;;;4897089;29;20486;-77
2021/01/08 03:53:39;;;;;;;6.00;5.37;;;5.80;64.40;;;;;;4897410;29;20949;-76
2021/01/08 03:56:06;;;;;;;8.67;6.47;;;5.80;64.30;;;;;;4896269;29;20464;-76
2021/01/08 03:58:33;;;;;;;7.93;5.97;;;5.80;64.40;;;;;;4896635;29;20469;-76
2021/01/08 04:00:59;;;;;;;6.93;5.33;;;5.80;64.50;;;;;;4896911;29;20451;-75
2021/01/08 04:03:26;;;;;;;6.30;5.50;;;5.70;64.40;;;;;;4897343;29;20843;-75
2021/01/08 04:05:53;;;;;;;7.37;6.53;;;5.70;64.40;;;;;;4897713;29;20507;-75
2021/01/08 04:08:20;;;;;;;9.37;5.90;;;5.70;64.40;;;;;;4897177;29;20475;-76
2021/01/08 04:10:46;;;;;;;8.30;6.53;;;5.70;64.50;;;;;;4896804;29;20468;-75
2021/01/08 04:13:13;;;;;;;6.53;5.30;;;5.70;64.50;;;;;;4897253;29;20497;-76
2021/01/08 04:15:40;;;;;;;6.13;5.13;;;5.70;64.50;;;;;;4897538;29;20461;-76
2021/01/08 04:18:06;;;;;;;8.80;7.00;;;5.70;64.50;;;;;;4897742;29;20828;-77
2021/01/08 04:20:33;;;;;;;9.20;5.50;;;5.70;64.50;;;;;;4897134;29;20454;-77
2021/01/08 04:23:00;;;;;;;7.80;6.60;;;5.70;64.50;;;;;;4893956;29;20964;-76
2021/01/08 04:25:26;;;;;;;8.80;5.97;;;5.70;64.40;;;;;;4897312;29;20461;-78
2021/01/08 04:27:53;;;;;;;8.10;6.10;;;5.80;65.10;;;;;;4897526;29;20460;-78
2021/01/08 04:30:23;;;;;;;7.50;6.90;;;5.80;64.10;;;;;;4897322;29;20458;-75
2021/01/08 04:32:49;;;;;;;6.17;5.57;;;5.80;63.80;;;;;;4896828;29;20498;-76
2021/01/08 04:35:16;;;;;;;10.47;5.80;;;5.80;63.60;;;;;;4897091;29;20459;-78
2021/01/08 04:37:43;;;;;;;8.10;6.20;;;5.80;63.90;;;;;;4897161;29;20518;-77
2021/01/08 04:40:12;;;;;;;6.57;5.73;;;5.80;65.00;;;;;;4897263;29;20459;-77
2021/01/08 04:42:39;;;;;;;7.03;6.10;;;5.80;64.50;;;;;;4897238;29;20545;-77
2021/01/08 04:45:07;;;;;;;6.30;5.70;;;5.80;64.70;;;;;;4897006;29;20541;-77
2021/01/08 04:47:34;;;;;;;7.70;6.03;;;5.90;64.50;;;;;;4895642;29;20894;-77
2021/01/08 04:50:02;;;;;;;5.73;5.23;;;5.90;64.50;;;;;;4895688;29;20459;-78
2021/01/08 04:52:30;;;;;;;7.63;6.03;;;5.90;64.10;;;;;;4897137;29;20905;-77
2021/01/08 04:54:57;;;;;;;8.53;6.20;;;6.00;63.90;;;;;;4896477;29;20830;-77
2021/01/08 04:57:27;;;;;;;9.43;7.50;;;6.00;63.70;;;;;;4896496;29;20463;-77
2021/01/08 04:59:54;;;;;;;8.33;6.00;;;5.90;63.80;;;;;;4896737;29;20460;-78
2021/01/08 05:02:20;;;;;;;6.23;5.63;;;5.90;63.90;;;;;;4896681;29;20463;-77
2021/01/08 05:04:47;;;;;;;8.80;6.50;;;5.90;64.10;;;;;;4896289;29;20956;-77
2021/01/08 05:07:13;;;;;;;6.17;5.03;;;5.90;64.10;;;;;;4900945;29;20459;-77
2021/01/08 05:09:40;;;;;;;7.03;6.20;;;5.90;64.20;;;;;;4900182;29;20459;-77
2021/01/08 05:12:07;;;;;;;7.47;5.30;;;5.80;64.20;;;;;;4899820;29;20867;-77
2021/01/08 05:14:37;;;;;;;6.87;5.80;;;5.80;64.40;;;;;;4898980;29;20926;-77
2021/01/08 05:17:03;;;;;;;6.00;5.40;;;5.80;64.40;;;;;;4896922;29;20842;-77
2021/01/08 05:19:30;;;;;;;9.30;6.00;;;5.80;64.40;;;;;;4900334;29;20463;-77
2021/01/08 05:21:57;;;;;;;6.57;5.87;;;5.70;64.30;;;;;;4892177;29;20455;-77
2021/01/08 05:24:24;;;;;;;7.03;5.90;;;5.70;64.10;;;;;;4899848;29;20459;-77
2021/01/08 05:26:51;;;;;;;6.30;5.70;;;5.70;64.00;;;;;;4898656;29;20892;-77
2021/01/08 05:29:18;;;;;;;7.60;4.63;;;5.70;64.30;;;;;;4900442;29;20539;-77
2021/01/08 05:31:47;;;;;;;8.70;5.90;;;5.60;64.40;;;;;;4899772;29;20493;-77
2021/01/08 05:34:23;;;;;;;5.93;5.33;;;5.70;64.50;;;;;;4900187;29;20465;-77
2021/01/08 05:36:50;;;;;;;9.27;5.30;;;5.70;64.60;;;;;;4899473;29;20959;-77
2021/01/08 05:39:21;;;;;;;7.03;4.60;;;5.70;64.70;;;;;;4899656;29;20548;-77
2021/01/08 05:41:47;;;;;;;7.27;5.50;;;5.70;64.60;;;;;;4897915;29;20564;-77
2021/01/08 05:44:16;;;;;;;6.40;5.43;;;5.80;64.40;;;;;;4899468;29;20473;-77
2021/01/08 05:46:44;;;;;;;5.90;5.30;;;5.80;64.10;;;;;;4899147;29;20490;-76
2021/01/08 05:49:12;;;;;;;7.30;5.30;;;5.80;63.80;;;;;;4899344;29;21002;-77
2021/01/08 05:51:39;;;;;;;6.77;6.07;;;5.80;64.00;;;;;;4899728;29;20520;-77
2021/01/08 05:54:07;;;;;;;5.53;4.57;;;5.80;64.20;;;;;;4899118;29;20468;-78
2021/01/08 05:56:35;;;;;;;6.10;5.10;;;5.80;64.20;;;;;;4899530;29;20465;-77
2021/01/08 05:59:04;;;;;;;6.20;5.10;;;5.80;64.10;;;;;;4898727;29;20455;-78
2021/01/08 06:01:32;;;;;;;6.87;5.60;;;5.80;63.90;;;;;;4899690;29;21031;-77
2021/01/08 06:03:59;;;;;;;5.30;4.60;;;5.80;63.90;;;;;;4899317;29;20462;-77
2021/01/08 06:06:38;;;;;;;4.73;4.30;;;5.80;64.10;;;;;;4899212;29;20469;-77
2021/01/08 06:09:06;;;;;;;4.77;4.30;;;5.80;64.10;;;;;;4896992;29;20456;-77
2021/01/08 06:11:35;;;;;;;7.60;5.17;;;5.80;64.10;;;;;;4899352;29;20541;-78
2021/01/08 06:14:03;;;;;;;6.47;4.73;;;5.80;63.80;;;;;;4898681;29;20456;-77
2021/01/08 06:16:36;;;;;;;6.23;5.50;;;5.70;63.70;;;;;;4899324;29;20455;-77
2021/01/08 06:19:03;;;;;;;6.03;4.10;;;5.70;63.80;;;;;;4898859;29;20508;-77
2021/01/08 06:21:38;;;;;;;10.90;5.77;;;5.70;64.00;;;;;;4898907;29;20486;-76
2021/01/08 06:24:05;;;;;;;5.97;4.60;;;5.70;64.00;;;;;;4898058;29;20463;-76
2021/01/08 06:26:32;;;;;;;4.63;4.20;;;5.80;64.10;;;;;;4898434;29;20511;-77
2021/01/08 06:29:01;;;;;;;6.43;4.43;;;5.80;63.90;;;;;;4898461;29;20463;-77
2021/01/08 06:31:36;;;;;;;5.47;4.60;;;5.80;63.40;;;;;;4897686;29;20492;-77
2021/01/08 06:34:03;;;;;;;6.10;4.73;;;5.90;63.70;;;;;;4898809;29;21064;-76
2021/01/08 06:36:32;;;;;;;4.47;4.07;;;5.90;63.80;;;;;;4897036;29;20456;-76
2021/01/08 06:39:01;;;;;;;5.00;4.17;;;5.80;63.50;;;;;;4898812;29;20459;-76
2021/01/08 06:41:28;;;;;;;5.43;4.77;;;5.80;63.50;;;;;;4898105;29;20500;-76
2021/01/08 06:43:59;;;;;;;4.80;4.10;;;5.90;63.80;;;;;;4898669;29;20474;-77
2021/01/08 06:46:31;;;;;;;4.80;4.17;;;5.90;63.60;;;;;;4897975;29;20980;-77
2021/01/08 06:48:59;;;;;;;4.83;4.20;;;5.90;63.30;;;;;;4898366;29;20599;-76
2021/01/08 06:51:28;;;;;;;6.00;4.30;;;5.90;63.30;;;;;;4897875;29;20837;-76
2021/01/08 06:54:03;;;;;;;4.73;4.30;;;5.90;63.40;;;;;;4898939;29;20459;-76
2021/01/08 06:56:38;;;;;;;4.03;3.73;;;5.90;62.80;;;;;;4898037;29;20451;-77
2021/01/08 06:59:06;;;;;;;4.67;4.20;;;5.90;62.40;;;;;;4898153;29;20485;-77
2021/01/08 07:01:44;;;;;;;4.50;4.10;;;5.90;62.30;;;;;;4897775;29;20464;-77
2021/01/08 07:04:11;;;;;;;5.47;4.97;;;5.90;62.20;;;;;;4896205;29;20823;-76
2021/01/08 07:06:39;;;;;;;5.00;4.30;;;5.90;62.40;;;;;;4897781;29;21092;-77
2021/01/08 07:09:07;;;;;;;7.83;4.90;;;5.90;62.40;;;;;;4898117;29;20538;-76
2021/01/08 07:11:35;;;;;;;5.13;4.50;;;5.90;62.50;;;;;;4896575;29;20550;-76
2021/01/08 07:14:11;;;;;;;5.60;4.60;;;5.90;62.60;;;;;;4897808;29;20456;-75
2021/01/08 07:16:45;;;;;;;4.87;4.47;;;6.00;62.90;;;;;;4894305;29;20462;-76
2021/01/08 07:19:13;;;;;;;6.03;4.13;;;6.00;62.90;;;;;;4897484;29;20463;-76
2021/01/08 07:21:44;;;;;;;4.97;3.90;;;6.00;63.00;;;;;;4897403;29;20535;-75
2021/01/08 07:24:12;;;;;;;4.90;4.50;;;6.00;62.60;;;;;;4897841;29;20474;-75
2021/01/08 07:26:39;;;;;;;6.60;4.63;;;6.00;62.50;;;;;;4898327;29;20459;-76
2021/01/08 07:29:07;;;;;;;4.73;4.33;;;6.00;62.60;;;;;;4896245;29;20459;-76
2021/01/08 07:31:35;;;;;;;7.97;5.20;;;5.90;62.60;;;;;;4896756;29;20563;-76
2021/01/08 07:34:03;;;;;;;7.50;5.10;;;5.90;63.10;;;;;;4896595;29;20958;-75
2021/01/08 07:36:31;;;;;;;5.20;4.40;;;6.00;63.00;;;;;;4898885;29;20451;-76
2021/01/08 07:38:58;;;;;;;6.70;5.70;;;6.00;62.90;;;;;;4896972;29;20456;-77
2021/01/08 07:41:37;;;;;;;6.10;5.53;;;6.00;62.90;;;;;;4897420;29;20474;-76
2021/01/08 07:44:05;;;;;;;5.37;4.33;;;6.00;63.10;;;;;;4897180;29;20482;-75
2021/01/08 07:46:34;;;;;;;6.47;4.83;;;6.00;63.20;;;;;;4896671;29;20494;-77
2021/01/08 07:49:02;;;;;;;5.17;4.67;;;6.00;63.10;;;;;;4897207;29;20462;-75
2021/01/08 07:51:45;;;;;;;6.07;5.00;;;6.00;63.20;;;;;;4895943;29;20463;-75
2021/01/08 07:54:12;;;;;;;5.23;4.73;;;6.00;63.30;;;;;;4897540;29;20462;-74
2021/01/08 07:57:05;;;;;;;7.53;6.03;;;6.00;63.50;;;;;;4895151;29;20460;-74
2021/01/08 07:59:32;;;;;;;7.53;5.30;;;6.10;63.40;;;;;;4895750;29;20957;-75
2021/01/08 08:01:59;;;;;;;5.23;4.73;;;6.10;63.40;;;;;;4896511;29;20453;-75
2021/01/08 08:04:28;;;;;;;5.53;4.87;;;6.10;63.00;;;;;;4897299;29;20922;-75
2021/01/08 08:06:56;;;;;;;5.93;4.53;;;6.10;62.70;;;;;;4883267;29;20464;-75
2021/01/08 08:09:24;;;;;;;5.33;4.80;;;6.00;62.40;;;;;;4894224;29;20498;-75
2021/01/08 08:11:50;;;;;;;6.20;5.27;;;6.00;62.70;;;;;;4895428;29;20574;-73
2021/01/08 08:14:19;;;;;;;6.13;4.83;;;6.00;63.00;;;;;;4896780;29;20955;-74
2021/01/08 08:16:46;;;;;;;7.80;5.80;;;6.00;63.20;;;;;;4896342;29;20458;-74
2021/01/08 08:19:13;;;;;;;5.60;4.37;;;6.10;63.20;;;;;;4896517;29;20455;-73
2021/01/08 08:21:46;;;;;;;6.60;4.37;;;6.10;63.00;;;;;;4897012;29;20490;-73
2021/01/08 08:24:16;;;;;;;5.70;5.10;;;6.10;62.50;;;;;;4898645;29;20864;-73
2021/01/08 08:26:43;;;;;;;4.93;4.30;;;6.10;62.50;;;;;;4903238;29;20463;-74
2021/01/08 08:29:11;;;;;;;4.97;4.47;;;6.10;62.40;;;;;;4896440;29;21023;-74
2021/01/08 08:31:40;;;;;;;5.23;3.97;;;6.10;62.60;;;;;;4896365;29;20822;-74
2021/01/08 08:34:08;;;;;;;4.73;4.10;;;6.20;63.10;;;;;;4897109;29;20513;-74
2021/01/08 08:36:35;;;;;;;4.77;4.37;;;6.10;63.90;;;;;;4896834;29;20455;-74
2021/01/08 08:39:06;;;;;;;5.07;4.20;;;6.20;63.50;;;;;;4897165;29;20474;-74
2021/01/08 08:41:34;;;;;;;6.60;5.13;;;6.30;63.30;;;;;;4898885;29;20451;-74
2021/01/08 08:44:05;;;;;;;6.27;4.27;;;6.40;63.50;;;;;;4899690;29;20463;-78
2021/01/08 08:46:49;;;;;;;6.10;4.10;;;6.40;63.60;;;;;;4897635;29;20850;-75
2021/01/08 08:49:18;;;;;;;6.27;4.60;;;6.40;62.60;;;;;;4900265;29;20458;-75
2021/01/08 08:51:46;;;;;;;4.47;4.07;;;6.40;62.60;;;;;;4898993;29;20491;-75
2021/01/08 08:54:13;;;;;;;4.23;3.83;;;6.30;63.10;;;;;;4900162;29;20459;-75
2021/01/08 08:56:41;;;;;;;5.77;4.70;;;6.30;63.10;;;;;;4900448;29;20460;-76
2021/01/08 08:59:07;;;;;;;7.30;4.60;;;6.30;63.60;;;;;;4900345;29;20460;-75
2021/01/08 09:01:41;;;;;;;5.17;4.13;;;6.30;63.60;;;;;;4900100;29;20463;-75
2021/01/08 09:04:10;;;;;;;5.47;4.40;;;6.30;63.90;;;;;;4904526;29;20555;-74
2021/01/08 09:06:40;;;;;;;4.90;4.50;;;6.30;64.30;;;;;;4899271;29;20459;-75
2021/01/08 09:09:26;;;;;;;5.47;4.97;;;6.30;64.70;;;;;;4900475;29;20475;-75
2021/01/08 09:12:16;;;;;;;5.30;4.60;;;6.30;64.80;;;;;;4899754;29;20494;-76
2021/01/08 09:14:47;;;;;;;6.77;3.63;;;6.30;64.70;;;;;;4900290;29;20462;-76
2021/01/08 09:17:18;;;;;;;4.47;4.07;;;6.40;65.00;;;;;;4900167;29;20470;-75
2021/01/08 09:19:51;;;;;;;3.87;3.40;;;6.30;64.20;;;;;;4897410;29;20500;-75
2021/01/08 09:22:18;;;;;;;6.77;3.80;;;6.30;64.70;;;;;;4899500;29;20513;-75
2021/01/08 09:24:47;;;;;;;7.00;4.97;;;6.40;64.80;;;;;;4900127;29;20462;-76
2021/01/08 09:27:14;;;;;;;5.07;4.57;;;6.40;64.90;;;;;;4899138;29;20878;-76
2021/01/08 09:29:41;;;;;;;4.10;3.70;;;6.50;64.80;;;;;;4899623;29;20464;-76
2021/01/08 09:32:08;;;;;;;6.80;3.60;;;6.50;64.10;;;;;;4899774;29;21059;-76
2021/01/08 09:34:36;;;;;;;3.70;3.40;;;6.50;63.80;;;;;;4899030;29;20518;-75
2021/01/08 09:37:15;;;;;;;5.13;3.27;;;6.50;63.60;;;;;;4898823;29;20469;-76
2021/01/08 09:39:43;;;;;;;3.70;3.30;;;6.50;63.60;;;;;;4899053;29;20490;-76
2021/01/08 09:42:11;;;;;;;3.67;2.63;;;6.50;64.00;;;;;;4881346;29;20465;-77
2021/01/08 09:44:39;;;;;;;3.73;3.23;;;6.50;64.00;;;;;;4900095;29;22283;-76
2021/01/08 09:47:07;;;;;;;4.03;2.57;;;6.50;63.80;;;;;;4896244;29;20485;-76
2021/01/08 09:49:42;;;;;;;3.27;2.50;;;6.50;62.90;;;;;;4899068;29;20455;-76
2021/01/08 09:52:10;;;;;;;2.77;2.57;;;6.60;63.10;;;;;;4897563;29;20864;-75
2021/01/08 09:54:52;;;;;;;2.80;2.60;;;6.60;62.90;;;;;;4898391;29;20977;-76
2021/01/08 09:57:26;;;;;;;2.50;2.30;;;6.60;62.90;;;;;;4899500;29;20463;-76
2021/01/08 09:59:57;;;;;;;3.20;2.70;;;6.60;62.70;;;;;;4898706;29;20456;-75
2021/01/08 10:02:37;;;;;;;2.70;2.50;;;6.70;62.70;;;;;;4899179;29;20462;-75
2021/01/08 10:05:05;;;;;;;2.37;2.17;;;6.70;62.00;;;;;;4899342;29;20470;-75
2021/01/08 10:07:42;;;;;;;2.90;2.60;;;6.60;61.30;;;;;;4898296;29;20460;-76
2021/01/08 10:10:12;;;;;;;2.53;2.40;;;6.70;61.30;;;;;;4897993;29;20827;-76
2021/01/08 10:12:46;;;;;;;2.57;2.37;;;6.60;60.70;;;;;;4898676;29;20495;-75
2021/01/08 10:15:13;;;;;;;3.20;2.80;;;6.60;61.20;;;;;;4895932;29;20517;-76
2021/01/08 10:17:47;;;;;;;5.20;2.60;;;6.70;61.40;;;;;;4898092;29;20457;-75
2021/01/08 10:20:16;;;;;;;2.93;2.70;;;6.70;60.90;;;;;;4897919;29;20468;-75
2021/01/08 10:22:47;;;;;;;2.57;2.37;;;6.70;60.50;;;;;;4898349;29;20518;-75
2021/01/08 10:25:26;;;;;;;2.90;2.70;;;6.70;60.20;;;;;;4898764;29;20971;-74
2021/01/08 10:27:53;;;;;;;2.73;2.53;;;6.70;60.60;;;;;;4895905;29;20470;-75
2021/01/08 10:30:20;;;;;;;3.00;2.77;;;6.70;60.40;;;;;;4896578;29;20876;-74
2021/01/08 10:32:47;;;;;;;3.37;3.07;;;6.70;60.60;;;;;;4898226;29;20522;-75
2021/01/08 10:35:15;;;;;;;2.30;2.00;;;6.70;60.20;;;;;;4903773;29;20472;-75
2021/01/08 10:37:41;;;;;;;3.87;2.50;;;6.70;59.90;;;;;;4904358;29;20984;-76
2021/01/08 10:40:09;;;;;;;3.63;2.20;;;6.60;59.90;;;;;;4898768;29;20455;-76
2021/01/08 10:42:36;;;;;;;3.00;2.60;;;6.70;60.40;;;;;;4899736;29;20456;-76
2021/01/08 10:45:03;;;;;;;2.90;2.70;;;6.80;59.80;;;;;;4898176;29;20466;-76
2021/01/08 10:47:29;;;;;;;4.00;2.87;;;6.70;59.00;;;;;;4899623;29;20479;-77
2021/01/08 10:49:56;;;;;;;2.90;2.70;;;6.60;59.40;;;;;;4897903;29;20879;-76
2021/01/08 10:52:23;;;;;;;3.37;3.00;;;6.50;59.90;;;;;;4907019;29;20557;-76
2021/01/08 10:54:49;;;;;;;3.20;2.90;;;6.70;60.30;;;;;;4909655;29;20533;-76
2021/01/08 10:57:16;;;;;;;6.20;3.43;;;6.80;60.20;;;;;;4897450;29;20461;-77
2021/01/08 10:59:44;;;;;;;3.80;3.03;;;7.00;59.60;;;;;;4898307;29;20973;-77
2021/01/08 11:02:11;;;;;;;3.50;3.10;;;7.10;59.10;;;;;;4897416;29;20985;-76
2021/01/08 11:04:38;;;;;;;2.80;2.60;;;7.20;58.90;;;;;;4896904;29;20457;-76
2021/01/08 11:07:04;;;;;;;3.30;3.00;;;7.20;58.50;;;;;;4898429;29;20456;-76
2021/01/08 11:09:31;;;;;;;4.77;3.40;;;7.20;58.30;;;;;;4896175;29;20470;-76
2021/01/08 11:12:00;;;;;;;5.13;3.70;;;7.40;58.50;;;;;;4896763;29;20497;-77
2021/01/08 11:14:27;;;;;;;3.00;2.70;;;7.50;57.90;;;;;;4881594;29;20481;-77
2021/01/08 11:16:54;;;;;;;3.67;3.37;;;7.40;57.70;;;;;;4897016;29;20467;-77
2021/01/08 11:19:21;;;;;;;4.83;4.43;;;7.50;58.20;;;;;;4904818;29;20463;-77
2021/01/08 11:21:51;;;;;;;4.50;3.40;;;7.50;58.20;;;;;;4896596;29;20456;-77
2021/01/08 11:24:26;;;;;;;3.77;3.00;;;7.40;57.10;;;;;;5110021;27;20580;-76
2021/01/08 11:26:52;;;;;;;4.87;4.37;;;7.30;57.40;;;;;;5100953;28;20943;-77
2021/01/08 11:29:19;;;;;;;4.63;3.60;;;7.20;57.80;;;;;;5109569;28;21019;-77
2021/01/08 11:31:45;;;;;;;4.60;3.83;;;7.30;58.20;;;;;;5096643;28;20855;-77
2021/01/08 11:34:12;;;;;;;3.73;3.30;;;7.30;57.60;;;;;;5109551;28;20458;-78
2021/01/08 11:36:39;;;;;;;3.97;3.50;;;7.40;57.70;;;;;;5105309;28;20454;-76
2021/01/08 11:39:06;;;;;;;5.30;3.00;;;7.50;57.40;;;;;;5109979;28;20458;-77
2021/01/08 11:41:34;;;;;;;4.60;3.33;;;7.60;57.40;;;;;;5105663;28;20534;-75
2021/01/08 11:44:00;;;;;;;4.40;3.10;;;7.60;57.00;;;;;;5107879;28;21006;-77
2021/01/08 11:46:27;;;;;;;3.47;2.73;;;7.70;56.50;;;;;;5105669;28;20448;-77
2021/01/08 11:48:53;;;;;;;5.13;3.43;;;7.70;55.90;;;;;;5109477;28;20454;-77
2021/01/08 11:51:20;;;;;;;3.80;3.30;;;7.80;55.80;;;;;;5108588;28;20454;-78
2021/01/08 11:53:48;;;;;;;4.03;3.50;;;7.80;56.30;;;;;;5109320;28;20455;-76
2021/01/08 11:56:15;;;;;;;3.53;3.23;;;7.60;54.60;;;;;;5109401;28;20450;-77
2021/01/08 11:58:44;;;;;;;4.23;3.57;;;7.50;55.20;;;;;;5100273;28;20512;-77
2021/01/08 12:01:11;;;;;;;3.00;2.80;;;7.50;55.00;;;;;;5104454;28;20449;-77
2021/01/08 12:03:39;;;;;;;5.73;3.00;;;7.50;55.50;;;;;;5107445;28;20492;-76
2021/01/08 12:06:06;;;;;;;4.53;3.37;;;7.50;55.30;;;;;;5100142;28;20446;-76
2021/01/08 12:08:33;;;;;;;4.80;3.80;;;7.50;55.30;;;;;;5101869;28;20447;-76
2021/01/08 12:11:00;;;;;;;4.50;3.57;;;7.50;55.40;;;;;;5109452;28;20455;-76
2021/01/08 12:13:27;;;;;;;4.00;3.63;;;7.50;55.20;;;;;;5106708;28;20960;-77
2021/01/08 12:15:54;;;;;;;6.70;4.40;;;7.50;55.20;;;;;;5101465;28;20808;-74
2021/01/08 12:18:21;;;;;;;3.73;3.33;;;7.50;54.90;;;;;;5105854;28;20448;-77
2021/01/08 12:20:48;;;;;;;3.53;2.83;;;7.50;55.10;;;;;;5102765;28;20870;-76
2021/01/08 12:23:15;;;;;;;3.10;2.87;;;7.40;55.10;;;;;;5119568;28;20998;-75
2021/01/08 12:25:42;;;;;;;3.67;2.90;;;7.30;54.80;;;;;;5129103;28;20505;-77
2021/01/08 12:28:10;;;;;;;5.43;4.10;;;7.20;55.20;;;;;;5129164;27;20494;-77
2021/01/08 12:30:37;;;;;;;4.50;3.50;;;7.20;55.60;;;;;;5121585;27;20452;-76
2021/01/08 12:33:05;;;;;;;3.50;3.20;;;7.20;55.70;;;;;;5121613;28;20451;-76
2021/01/08 12:35:32;;;;;;;6.80;3.90;;;7.10;55.50;;;;;;5113022;28;20822;-76
2021/01/08 12:37:59;;;;;;;6.50;3.70;;;7.00;55.60;;;;;;5104338;28;20788;-77
2021/01/08 12:40:26;;;;;;;4.87;3.57;;;7.00;55.80;;;;;;5113233;28;20457;-77
2021/01/08 12:42:53;;;;;;;7.83;3.57;;;7.00;55.90;;;;;;5114894;28;20479;-75
2021/01/08 12:45:21;;;;;;;9.50;5.13;;;7.10;56.00;;;;;;5110247;28;20539;-77
2021/01/08 12:47:48;;;;;;;6.13;4.33;;;7.10;55.70;;;;;;5102913;28;20455;-77
2021/01/08 12:50:16;;;;;;;4.87;4.47;;;7.10;56.00;;;;;;5113217;28;20978;-76
2021/01/08 12:52:43;;;;;;;4.50;4.10;;;7.10;56.00;;;;;;5106379;28;20443;-73
2021/01/08 12:55:11;;;;;;;4.67;4.17;;;7.10;56.10;;;;;;5101384;28;20530;-75
2021/01/08 12:57:44;;;;;;;6.80;4.60;;;7.10;55.80;;;;;;5102644;28;20469;-76
2021/01/08 13:00:13;;;;;;;5.80;4.70;;;7.00;55.80;;;;;;5105446;28;20490;-74
2021/01/08 13:02:44;;;;;;;5.70;4.40;;;7.00;56.20;;;;;;5112246;28;20485;-75
2021/01/08 13:05:12;;;;;;;9.60;5.07;;;7.00;55.90;;;;;;5111169;28;20435;-75